Time;durP1;ratioP1;P1;durP2;ratioP2;P2;SDS_P1;SDS_P2;PMS_P1;PMS_P2;Temp;Humidity;BMP_temperature;BMP_pressure;BME280_temperature;BME280_humidity;BME280_pressure;Samples;Min_cycle;Max_cycle;Signal;HPM_P1;HPM_P2
2023/05/28 00:02:47;;;;;;;11.95;4.57;;;11.70;99.90;;;;;;5028914;28;20258;-64
2023/05/28 00:05:14;;;;;;;9.45;4.28;;;11.70;99.90;;;;;;5041636;28;20247;-64
2023/05/28 00:07:41;;;;;;;10.32;4.22;;;11.60;99.90;;;;;;5025133;28;20204;-64
2023/05/28 00:10:09;;;;;;;11.73;4.55;;;11.60;99.90;;;;;;5005085;28;20204;-64
2023/05/28 00:12:37;;;;;;;9.18;4.88;;;11.60;99.90;;;;;;5029857;28;20232;-64
2023/05/28 00:15:05;;;;;;;13.38;5.38;;;11.60;99.90;;;;;;5028487;28;20220;-64
2023/05/28 00:17:32;;;;;;;8.32;4.43;;;11.60;99.90;;;;;;5024244;28;20562;-64
2023/05/28 00:19:59;;;;;;;12.70;5.00;;;11.50;99.90;;;;;;5037603;28;20224;-64
2023/05/28 00:22:26;;;;;;;12.02;5.28;;;11.50;99.90;;;;;;5028485;28;20508;-64
2023/05/28 00:24:53;;;;;;;15.52;4.85;;;11.50;99.90;;;;;;5006073;28;20569;-64
2023/05/28 00:27:19;;;;;;;15.30;4.78;;;11.50;99.90;;;;;;5026000;28;20208;-64
2023/05/28 00:29:48;;;;;;;12.63;5.13;;;11.40;99.90;;;;;;5038298;28;20197;-64
2023/05/28 00:32:14;;;;;;;14.18;5.20;;;11.40;99.90;;;;;;5028819;28;20201;-64
2023/05/28 00:34:41;;;;;;;12.73;5.28;;;11.40;99.90;;;;;;5025381;28;20427;-64
2023/05/28 00:37:08;;;;;;;15.57;5.45;;;11.40;99.90;;;;;;5038238;28;20213;-64
2023/05/28 00:39:34;;;;;;;12.18;4.95;;;11.40;99.90;;;;;;4996025;28;20736;-64
2023/05/28 00:42:02;;;;;;;15.77;6.10;;;11.30;99.90;;;;;;5028105;28;20236;-64
2023/05/28 00:44:31;;;;;;;18.75;5.07;;;11.30;99.90;;;;;;5035506;28;20798;-64
2023/05/28 00:47:00;;;;;;;16.13;5.13;;;11.30;99.90;;;;;;5040174;28;20196;-64
2023/05/28 00:49:27;;;;;;;9.88;5.07;;;11.30;99.90;;;;;;5026023;28;20314;-64
2023/05/28 00:51:55;;;;;;;9.45;4.88;;;11.40;99.90;;;;;;5038367;28;20546;-64
2023/05/28 00:54:22;;;;;;;11.55;4.95;;;11.40;99.90;;;;;;5015095;28;20697;-64
2023/05/28 00:56:50;;;;;;;10.75;4.97;;;11.40;99.90;;;;;;4991995;28;20232;-64
2023/05/28 00:59:18;;;;;;;12.57;5.10;;;11.40;99.90;;;;;;5031888;28;20251;-64
2023/05/28 01:01:45;;;;;;;12.60;4.75;;;11.50;99.90;;;;;;5027962;28;20204;-64
2023/05/28 01:04:13;;;;;;;11.93;4.65;;;11.50;99.90;;;;;;5033589;28;20196;-64
2023/05/28 01:06:43;;;;;;;11.25;5.07;;;11.60;99.90;;;;;;5029497;28;20224;-65
2023/05/28 01:09:10;;;;;;;12.48;4.95;;;11.60;99.90;;;;;;5037422;28;20299;-64
2023/05/28 01:11:40;;;;;;;11.55;4.72;;;11.60;99.90;;;;;;4994493;28;20908;-64
2023/05/28 01:14:08;;;;;;;13.50;4.60;;;11.50;99.90;;;;;;5038992;28;20201;-64
2023/05/28 01:16:35;;;;;;;9.02;4.43;;;11.40;99.90;;;;;;5025241;28;20209;-64
2023/05/28 01:19:08;;;;;;;16.02;5.30;;;11.20;99.90;;;;;;5039683;28;20232;-64
2023/05/28 01:21:41;;;;;;;19.52;5.18;;;11.10;99.90;;;;;;5029147;28;20899;-64
2023/05/28 01:24:10;;;;;;;8.48;4.57;;;11.10;99.90;;;;;;5038175;28;20201;-64
2023/05/28 01:26:38;;;;;;;7.55;4.38;;;11.20;99.90;;;;;;5033119;28;20877;-64
2023/05/28 01:29:14;;;;;;;10.90;4.93;;;11.10;99.90;;;;;;5010720;28;21251;-64
2023/05/28 01:31:41;;;;;;;9.57;4.70;;;11.10;99.90;;;;;;5027108;28;20208;-64
2023/05/28 01:34:08;;;;;;;7.78;4.78;;;11.00;99.90;;;;;;5043087;28;20204;-64
2023/05/28 01:36:37;;;;;;;10.82;4.75;;;11.00;99.90;;;;;;5027213;28;21584;-64
2023/05/28 01:39:05;;;;;;;13.48;5.30;;;10.90;99.90;;;;;;5043962;28;20220;-64
2023/05/28 01:41:35;;;;;;;9.85;4.88;;;10.90;99.90;;;;;;5026616;28;20887;-64
2023/05/28 01:44:06;;;;;;;12.13;4.53;;;10.70;99.90;;;;;;5008456;28;20227;-64
2023/05/28 01:46:33;;;;;;;12.05;5.25;;;10.60;99.90;;;;;;5040819;28;20440;-64
2023/05/28 01:49:01;;;;;;;9.07;4.70;;;10.60;99.90;;;;;;5044346;28;20215;-64
2023/05/28 01:51:28;;;;;;;10.73;5.30;;;10.60;99.90;;;;;;5027710;28;20529;-64
2023/05/28 01:53:55;;;;;;;10.35;4.65;;;10.60;99.90;;;;;;5042803;28;20386;-64
2023/05/28 01:56:21;;;;;;;10.95;4.55;;;10.50;99.90;;;;;;5018207;28;21068;-64
2023/05/28 01:58:49;;;;;;;17.70;5.20;;;10.60;99.90;;;;;;5043196;28;20193;-64
2023/05/28 02:01:27;;;;;;;11.85;5.03;;;10.60;99.90;;;;;;5005436;28;20215;-64
2023/05/28 02:03:54;;;;;;;11.82;5.57;;;10.60;99.90;;;;;;5029922;28;20197;-64
2023/05/28 02:06:21;;;;;;;10.20;5.00;;;10.60;99.90;;;;;;5040601;28;20631;-64
2023/05/28 02:08:48;;;;;;;10.82;4.30;;;10.60;99.90;;;;;;5023315;28;20203;-64
2023/05/28 02:11:15;;;;;;;9.20;5.15;;;10.60;99.90;;;;;;5026165;28;20212;-64
2023/05/28 02:13:42;;;;;;;11.85;5.07;;;10.70;99.90;;;;;;5034137;28;20193;-64
2023/05/28 02:16:10;;;;;;;10.10;4.95;;;10.70;99.90;;;;;;5004764;28;20233;-64
2023/05/28 02:18:37;;;;;;;9.75;4.82;;;10.60;99.90;;;;;;5028574;28;20867;-64
2023/05/28 02:21:05;;;;;;;11.25;5.20;;;10.50;99.90;;;;;;5036143;28;20240;-64
2023/05/28 02:23:31;;;;;;;11.70;4.90;;;10.60;99.90;;;;;;5020304;28;20322;-64
2023/05/28 02:25:58;;;;;;;10.73;5.15;;;10.50;99.90;;;;;;5023699;28;20211;-64
2023/05/28 02:28:25;;;;;;;7.70;4.40;;;10.60;99.90;;;;;;5037432;28;20199;-64
2023/05/28 02:30:52;;;;;;;12.63;5.40;;;10.40;99.90;;;;;;5040890;28;20216;-64
2023/05/28 02:33:20;;;;;;;7.18;4.78;;;10.30;99.90;;;;;;4997053;28;20213;-64
2023/05/28 02:35:46;;;;;;;11.60;4.20;;;10.20;99.90;;;;;;5039034;28;20201;-64
2023/05/28 02:38:13;;;;;;;8.50;4.38;;;10.20;99.90;;;;;;5036271;28;20513;-64
2023/05/28 02:40:41;;;;;;;14.55;4.95;;;10.00;99.90;;;;;;5018496;28;20600;-64
2023/05/28 02:43:07;;;;;;;8.20;4.53;;;9.90;99.90;;;;;;5027388;28;20228;-64
2023/05/28 02:45:34;;;;;;;13.35;5.38;;;9.90;99.90;;;;;;5038082;28;20946;-64
2023/05/28 02:48:01;;;;;;;9.43;5.10;;;10.00;99.90;;;;;;5010493;28;20201;-64
2023/05/28 02:50:29;;;;;;;10.27;4.63;;;10.00;99.90;;;;;;5032115;28;20235;-65
2023/05/28 02:52:56;;;;;;;12.68;4.65;;;10.10;99.90;;;;;;5040262;28;20201;-64
2023/05/28 02:55:23;;;;;;;10.30;5.28;;;10.10;99.90;;;;;;5026171;28;20222;-64
2023/05/28 02:57:52;;;;;;;16.23;5.43;;;10.10;99.90;;;;;;5025286;28;21641;-64
2023/05/28 03:00:19;;;;;;;11.23;4.60;;;10.20;99.90;;;;;;5044856;28;20236;-64
2023/05/28 03:02:46;;;;;;;10.32;5.10;;;10.30;99.90;;;;;;5007691;28;20952;-64
2023/05/28 03:05:13;;;;;;;8.63;5.00;;;10.40;99.90;;;;;;5025755;28;20212;-64
2023/05/28 03:07:41;;;;;;;9.85;4.40;;;10.40;99.90;;;;;;5046785;28;20209;-64
2023/05/28 03:10:08;;;;;;;14.07;4.93;;;10.40;99.90;;;;;;5038505;28;20193;-64
2023/05/28 03:12:36;;;;;;;14.88;5.85;;;10.50;99.90;;;;;;5033990;28;20201;-64
2023/05/28 03:15:03;;;;;;;11.68;4.50;;;10.40;99.90;;;;;;5049153;28;20201;-63
2023/05/28 03:17:30;;;;;;;6.30;4.47;;;10.20;99.90;;;;;;5044312;28;20692;-63
2023/05/28 03:19:57;;;;;;;8.85;4.70;;;10.20;99.90;;;;;;5007072;28;20326;-63
2023/05/28 03:22:25;;;;;;;9.52;5.05;;;10.20;99.90;;;;;;5041113;28;20565;-63
2023/05/28 03:24:53;;;;;;;10.73;4.88;;;10.20;99.90;;;;;;5034394;28;20236;-64
2023/05/28 03:27:19;;;;;;;11.80;5.43;;;10.20;99.90;;;;;;5037833;28;20197;-64
2023/05/28 03:29:46;;;;;;;16.25;5.53;;;10.30;99.90;;;;;;5042104;28;20205;-64
2023/05/28 03:32:13;;;;;;;10.82;5.28;;;10.20;99.90;;;;;;5043964;28;20200;-64
2023/05/28 03:34:40;;;;;;;12.52;5.63;;;10.30;99.90;;;;;;5018599;28;20200;-64
2023/05/28 03:37:07;;;;;;;10.65;4.75;;;10.30;99.90;;;;;;5030875;28;20211;-64
2023/05/28 03:39:33;;;;;;;14.68;5.32;;;10.30;99.90;;;;;;5038971;28;21064;-64
2023/05/28 03:42:02;;;;;;;13.02;4.85;;;10.40;99.90;;;;;;5018505;28;20462;-64
2023/05/28 03:44:29;;;;;;;15.95;5.20;;;10.40;99.90;;;;;;5041311;28;20224;-64
2023/05/28 03:46:55;;;;;;;10.68;5.38;;;10.40;99.90;;;;;;5036193;28;20674;-64
2023/05/28 03:49:22;;;;;;;8.50;5.25;;;10.40;99.90;;;;;;5044498;28;20197;-64
2023/05/28 03:51:49;;;;;;;10.68;5.47;;;10.30;99.90;;;;;;4999680;28;20412;-64
2023/05/28 03:54:16;;;;;;;10.93;5.28;;;10.30;99.90;;;;;;5034863;28;20202;-64
2023/05/28 03:56:43;;;;;;;13.40;4.80;;;10.30;99.90;;;;;;5012822;28;20245;-64
2023/05/28 03:59:11;;;;;;;10.43;5.47;;;10.30;99.90;;;;;;5040468;28;20204;-64
2023/05/28 04:01:37;;;;;;;11.73;5.70;;;10.30;99.90;;;;;;5039341;28;20232;-64
2023/05/28 04:04:04;;;;;;;7.70;4.63;;;10.20;99.90;;;;;;5040920;28;20200;-64
2023/05/28 04:06:32;;;;;;;10.88;4.93;;;10.30;99.90;;;;;;5010358;28;20200;-63
2023/05/28 04:08:59;;;;;;;8.20;4.57;;;10.40;99.90;;;;;;5031156;28;20838;-64
2023/05/28 04:11:29;;;;;;;10.05;4.63;;;10.50;99.90;;;;;;5027998;28;20211;-63
2023/05/28 04:13:56;;;;;;;10.45;5.60;;;10.60;99.90;;;;;;5029288;28;20312;-64
2023/05/28 04:16:25;;;;;;;10.07;4.93;;;10.60;99.90;;;;;;5039387;28;20220;-64
2023/05/28 04:18:52;;;;;;;12.38;4.55;;;10.50;99.90;;;;;;5037307;28;20849;-64
2023/05/28 04:21:19;;;;;;;11.80;5.15;;;10.40;99.90;;;;;;5005969;28;20624;-64
2023/05/28 04:23:46;;;;;;;8.40;4.57;;;10.30;99.90;;;;;;5029219;28;20202;-64
2023/05/28 04:26:13;;;;;;;11.35;5.05;;;10.20;99.90;;;;;;5042346;28;20207;-64
2023/05/28 04:28:40;;;;;;;10.48;4.78;;;10.20;99.90;;;;;;5016675;28;21165;-64
2023/05/28 04:31:08;;;;;;;9.70;4.88;;;10.20;99.90;;;;;;5038395;28;20207;-64
2023/05/28 04:33:36;;;;;;;8.20;4.85;;;10.40;99.90;;;;;;5042242;28;20689;-64
2023/05/28 04:36:04;;;;;;;11.93;4.63;;;10.30;99.90;;;;;;5005718;28;20301;-64
2023/05/28 04:38:32;;;;;;;12.65;5.82;;;10.40;99.90;;;;;;5028003;28;20197;-64
2023/05/28 04:41:00;;;;;;;10.43;5.85;;;10.30;99.90;;;;;;5034988;28;20232;-64
2023/05/28 04:43:29;;;;;;;9.60;5.00;;;10.40;99.90;;;;;;5014193;28;21579;-64
2023/05/28 04:45:58;;;;;;;11.07;5.55;;;10.50;99.90;;;;;;5034270;28;20224;-64
2023/05/28 04:48:25;;;;;;;14.48;5.30;;;10.50;99.90;;;;;;5030297;28;20221;-64
2023/05/28 04:50:53;;;;;;;19.00;5.75;;;10.60;99.90;;;;;;5025479;28;20201;-65
2023/05/28 04:53:21;;;;;;;11.10;5.38;;;10.70;99.90;;;;;;5015091;28;20212;-64
2023/05/28 04:55:48;;;;;;;12.55;5.55;;;10.70;99.90;;;;;;5030991;28;20225;-64
2023/05/28 04:58:15;;;;;;;11.38;5.60;;;10.70;99.90;;;;;;5024394;28;20215;-64
2023/05/28 05:00:42;;;;;;;9.07;5.40;;;10.80;99.90;;;;;;5025569;28;20231;-64
2023/05/28 05:03:09;;;;;;;10.32;5.75;;;10.90;99.90;;;;;;5039482;28;20212;-64
2023/05/28 05:05:36;;;;;;;14.27;6.18;;;11.00;99.90;;;;;;5042550;28;20267;-64
2023/05/28 05:08:04;;;;;;;9.05;5.50;;;11.00;99.90;;;;;;4996962;28;20202;-64
2023/05/28 05:10:31;;;;;;;9.13;5.60;;;10.90;99.90;;;;;;5041869;28;21106;-64
2023/05/28 05:12:59;;;;;;;9.00;5.78;;;10.90;99.90;;;;;;5035662;28;20681;-64
2023/05/28 05:15:26;;;;;;;16.02;5.50;;;10.90;99.90;;;;;;5023118;28;20212;-64
2023/05/28 05:17:53;;;;;;;16.10;5.93;;;10.90;99.90;;;;;;5039466;28;20201;-64
2023/05/28 05:20:20;;;;;;;11.35;5.25;;;10.90;99.90;;;;;;5042601;28;20431;-64
2023/05/28 05:22:47;;;;;;;9.43;5.22;;;11.00;99.90;;;;;;5004313;28;20213;-64
2023/05/28 05:25:15;;;;;;;13.77;6.22;;;11.00;99.90;;;;;;5029549;28;20235;-64
2023/05/28 05:27:42;;;;;;;13.73;6.07;;;11.00;99.90;;;;;;5033934;28;20484;-64
2023/05/28 05:30:10;;;;;;;14.23;5.57;;;11.10;99.90;;;;;;5023156;28;20221;-64
2023/05/28 05:32:37;;;;;;;13.00;6.18;;;11.10;99.90;;;;;;5020001;28;20204;-64
2023/05/28 05:35:05;;;;;;;16.65;5.53;;;11.20;99.90;;;;;;5032752;28;20224;-64
2023/05/28 05:37:32;;;;;;;10.65;5.75;;;11.20;99.90;;;;;;4995915;28;20207;-64
2023/05/28 05:39:59;;;;;;;9.23;5.10;;;11.20;99.90;;;;;;5023607;28;20237;-64
2023/05/28 05:42:27;;;;;;;11.35;5.53;;;11.30;99.90;;;;;;5033209;28;20230;-64
2023/05/28 05:44:54;;;;;;;13.23;6.35;;;11.30;99.90;;;;;;5026332;28;20204;-64
2023/05/28 05:47:21;;;;;;;8.18;5.53;;;11.30;99.90;;;;;;5022609;28;20737;-63
2023/05/28 05:49:47;;;;;;;12.93;5.97;;;11.40;99.90;;;;;;5029667;28;20221;-64
2023/05/28 05:52:14;;;;;;;15.07;6.00;;;11.30;99.90;;;;;;5033503;28;20236;-64
2023/05/28 05:54:41;;;;;;;10.13;5.93;;;11.40;99.90;;;;;;4998631;28;20697;-64
2023/05/28 05:57:09;;;;;;;15.68;6.30;;;11.30;99.90;;;;;;5018662;28;20598;-64
2023/05/28 05:59:37;;;;;;;13.27;6.20;;;11.40;99.90;;;;;;5033586;28;20235;-64
2023/05/28 06:02:04;;;;;;;15.13;7.10;;;11.50;99.90;;;;;;4984805;28;20232;-63
2023/05/28 06:04:31;;;;;;;12.07;5.78;;;11.50;99.90;;;;;;5029035;28;20351;-64
2023/05/28 06:07:02;;;;;;;14.18;6.03;;;11.60;99.90;;;;;;5034149;28;20251;-64
2023/05/28 06:09:29;;;;;;;11.88;6.22;;;11.60;99.90;;;;;;4994819;28;20228;-64
2023/05/28 06:11:55;;;;;;;9.40;5.25;;;11.70;99.90;;;;;;5020546;28;20709;-64
2023/05/28 06:14:23;;;;;;;12.07;5.50;;;11.70;99.90;;;;;;5034188;28;20224;-63
2023/05/28 06:16:51;;;;;;;15.13;6.35;;;11.80;99.90;;;;;;5018391;28;20407;-64
2023/05/28 06:19:18;;;;;;;10.75;6.32;;;11.90;99.90;;;;;;5028798;28;20266;-64
2023/05/28 06:21:45;;;;;;;15.65;6.28;;;12.00;99.90;;;;;;5025276;28;20264;-64
2023/05/28 06:24:12;;;;;;;16.17;5.97;;;12.00;99.90;;;;;;5003255;28;20298;-64
2023/05/28 06:26:39;;;;;;;15.10;6.70;;;12.10;99.90;;;;;;5022936;28;21017;-64
2023/05/28 06:29:07;;;;;;;18.85;6.70;;;12.10;99.90;;;;;;5017133;28;20307;-64
2023/05/28 06:31:34;;;;;;;16.02;7.13;;;12.20;99.90;;;;;;5033738;28;20243;-64
2023/05/28 06:34:03;;;;;;;14.75;6.45;;;12.20;99.90;;;;;;5029484;28;20317;-64
2023/05/28 06:36:30;;;;;;;13.02;6.40;;;12.20;99.90;;;;;;5046200;28;20717;-64
2023/05/28 06:38:57;;;;;;;16.00;6.32;;;12.20;99.90;;;;;;5027487;28;20351;-64
2023/05/28 06:41:24;;;;;;;16.50;6.50;;;12.20;99.90;;;;;;5006925;28;20289;-64
2023/05/28 06:43:50;;;;;;;12.75;6.38;;;12.30;99.90;;;;;;5042041;28;20720;-64
2023/05/28 06:46:17;;;;;;;12.15;6.78;;;12.30;99.90;;;;;;5048540;28;20269;-64
2023/05/28 06:48:44;;;;;;;14.65;6.32;;;12.40;99.90;;;;;;5037238;28;20724;-64
2023/05/28 06:51:13;;;;;;;12.35;6.25;;;12.50;99.90;;;;;;5042459;28;20189;-64
2023/05/28 06:53:40;;;;;;;14.63;6.60;;;12.50;99.90;;;;;;5034936;28;20243;-64
2023/05/28 06:56:08;;;;;;;12.80;6.35;;;12.50;99.90;;;;;;5016181;28;20631;-64
2023/05/28 06:58:34;;;;;;;13.10;6.03;;;12.50;99.90;;;;;;5041699;28;20725;-64
2023/05/28 07:01:03;;;;;;;15.48;6.78;;;12.60;99.90;;;;;;5044517;28;20240;-64
2023/05/28 07:03:30;;;;;;;15.82;6.45;;;12.60;99.90;;;;;;4992145;28;20224;-64
2023/05/28 07:05:57;;;;;;;16.23;7.82;;;12.80;99.90;;;;;;5043699;28;20307;-64
2023/05/28 07:08:26;;;;;;;17.33;6.28;;;12.90;99.90;;;;;;4995647;28;20204;-64
2023/05/28 07:10:53;;;;;;;17.80;6.20;;;13.00;99.90;;;;;;5001332;28;20213;-64
2023/05/28 07:13:20;;;;;;;12.65;6.68;;;13.00;99.90;;;;;;5039793;28;20362;-64
2023/05/28 07:15:46;;;;;;;12.32;6.13;;;13.10;99.90;;;;;;5042319;28;20476;-64
2023/05/28 07:18:13;;;;;;;14.60;6.53;;;13.20;99.90;;;;;;5047022;28;20270;-64
2023/05/28 07:20:40;;;;;;;14.05;6.22;;;13.20;99.90;;;;;;5029122;28;20284;-64
2023/05/28 07:23:07;;;;;;;14.35;6.10;;;13.20;99.90;;;;;;5032934;28;20686;-64
2023/05/28 07:25:35;;;;;;;13.38;6.70;;;13.40;99.90;;;;;;4995357;28;20318;-64
2023/05/28 07:28:02;;;;;;;13.75;5.85;;;13.60;99.90;;;;;;5038023;28;20274;-64
2023/05/28 07:30:29;;;;;;;13.68;6.50;;;13.70;99.90;;;;;;5038739;28;21266;-64
2023/05/28 07:32:56;;;;;;;14.85;7.00;;;13.80;99.90;;;;;;5047842;28;20236;-64
2023/05/28 07:35:22;;;;;;;23.55;6.70;;;13.80;99.90;;;;;;5036053;28;20287;-64
2023/05/28 07:37:49;;;;;;;12.55;6.13;;;13.90;99.90;;;;;;5047738;28;20626;-64
2023/05/28 07:40:16;;;;;;;14.52;6.85;;;13.90;99.90;;;;;;5023525;28;20301;-64
2023/05/28 07:42:44;;;;;;;10.98;6.45;;;14.00;99.90;;;;;;4997686;28;20546;-65
2023/05/28 07:45:11;;;;;;;17.42;5.47;;;14.10;99.90;;;;;;5045456;28;20619;-64
2023/05/28 07:47:38;;;;;;;15.82;5.60;;;14.20;99.90;;;;;;5041158;28;20221;-64
2023/05/28 07:50:05;;;;;;;17.63;6.00;;;14.30;99.90;;;;;;5034182;28;20334;-64
2023/05/28 07:52:32;;;;;;;12.05;5.88;;;14.30;99.90;;;;;;5041477;28;20225;-64
2023/05/28 07:54:59;;;;;;;13.00;5.50;;;14.40;99.90;;;;;;5032884;28;20220;-64
2023/05/28 07:57:26;;;;;;;16.17;5.80;;;14.50;99.90;;;;;;4983049;28;20213;-64
2023/05/28 07:59:55;;;;;;;12.10;5.00;;;14.50;99.90;;;;;;5043148;28;20246;-64
2023/05/28 08:02:21;;;;;;;14.07;5.22;;;14.60;99.90;;;;;;5004042;28;20635;-64
2023/05/28 08:04:49;;;;;;;12.43;5.28;;;14.60;99.90;;;;;;5005283;28;20604;-64
2023/05/28 08:07:16;;;;;;;11.60;5.57;;;14.60;99.90;;;;;;5027017;28;20673;-64
2023/05/28 08:09:43;;;;;;;12.48;4.68;;;14.80;99.90;;;;;;5019359;28;20359;-64
2023/05/28 08:12:10;;;;;;;11.52;4.60;;;14.80;99.90;;;;;;4974765;28;20258;-64
2023/05/28 08:14:37;;;;;;;15.38;5.43;;;14.90;99.90;;;;;;5017215;28;20582;-64
2023/05/28 08:17:05;;;;;;;14.60;5.55;;;15.00;99.90;;;;;;5039497;28;20342;-64
2023/05/28 08:19:32;;;;;;;12.45;5.57;;;14.90;99.90;;;;;;5043760;28;20395;-64
2023/05/28 08:21:59;;;;;;;14.23;5.20;;;15.00;99.90;;;;;;5028533;28;20711;-64
2023/05/28 08:24:26;;;;;;;16.08;5.65;;;15.00;99.90;;;;;;5028661;28;20337;-64
2023/05/28 08:26:53;;;;;;;11.07;5.68;;;15.10;99.90;;;;;;5024433;28;20233;-64
2023/05/28 08:29:19;;;;;;;17.20;5.72;;;15.10;99.90;;;;;;4989785;28;20533;-64
2023/05/28 08:31:47;;;;;;;16.05;6.18;;;15.30;99.90;;;;;;5030207;28;20279;-64
2023/05/28 08:34:15;;;;;;;15.02;5.95;;;15.40;99.90;;;;;;5017214;28;20550;-64
2023/05/28 08:36:42;;;;;;;13.45;4.80;;;15.50;99.90;;;;;;5021312;28;20295;-64
2023/05/28 08:39:10;;;;;;;16.65;4.72;;;15.60;99.90;;;;;;5008074;28;20915;-64
2023/05/28 08:41:36;;;;;;;10.60;4.38;;;15.60;99.90;;;;;;5020451;28;20370;-64
2023/05/28 08:44:03;;;;;;;13.13;4.88;;;15.70;99.90;;;;;;4957951;28;20225;-64
2023/05/28 08:46:32;;;;;;;9.13;4.53;;;15.80;99.90;;;;;;5018502;28;20678;-64
2023/05/28 08:48:59;;;;;;;11.75;4.80;;;16.00;99.90;;;;;;5025742;28;21113;-64
2023/05/28 08:51:32;;;;;;;12.15;4.57;;;15.80;99.90;;;;;;5033387;28;20201;-64
2023/05/28 08:54:01;;;;;;;9.75;4.72;;;15.80;99.90;;;;;;4997457;28;20209;-64
2023/05/28 08:56:28;;;;;;;11.63;4.55;;;15.90;99.90;;;;;;5029687;28;20204;-64
2023/05/28 08:58:55;;;;;;;8.85;4.00;;;15.90;99.90;;;;;;4965437;28;20204;-65
2023/05/28 09:01:22;;;;;;;11.23;4.32;;;16.00;99.90;;;;;;5009998;28;20258;-64
2023/05/28 09:03:49;;;;;;;7.70;3.95;;;16.00;99.90;;;;;;5024247;28;20676;-64
2023/05/28 09:06:19;;;;;;;13.50;4.75;;;16.00;99.90;;;;;;5021480;28;20228;-64
2023/05/28 09:08:48;;;;;;;12.25;4.10;;;16.10;99.90;;;;;;5027634;28;20236;-64
2023/05/28 09:11:15;;;;;;;9.13;3.55;;;16.10;99.90;;;;;;5026322;28;20493;-64
2023/05/28 09:13:43;;;;;;;14.68;4.30;;;16.20;99.90;;;;;;5025721;28;20486;-64
2023/05/28 09:16:10;;;;;;;9.38;3.78;;;16.30;99.90;;;;;;4971284;28;21321;-64
2023/05/28 09:18:37;;;;;;;8.05;4.10;;;16.50;99.90;;;;;;5012847;28;20450;-64
2023/05/28 09:21:10;;;;;;;8.70;3.75;;;16.60;99.90;;;;;;5015832;28;20307;-64
2023/05/28 09:23:37;;;;;;;8.57;3.50;;;16.70;99.90;;;;;;5031814;28;20205;-64
2023/05/28 09:26:09;;;;;;;7.55;3.85;;;16.70;99.90;;;;;;5023763;28;20243;-64
2023/05/28 09:28:36;;;;;;;8.38;3.58;;;16.70;99.90;;;;;;5044481;28;20292;-64
2023/05/28 09:31:06;;;;;;;8.90;3.78;;;16.80;99.90;;;;;;4986068;28;20951;-65
2023/05/28 09:33:34;;;;;;;10.13;3.50;;;16.90;99.90;;;;;;5037511;28;20338;-64
2023/05/28 09:36:02;;;;;;;7.85;3.38;;;17.00;99.90;;;;;;5025224;28;20240;-64
2023/05/28 09:38:39;;;;;;;10.52;3.72;;;17.10;99.90;;;;;;5031525;28;21251;-64
2023/05/28 09:41:19;;;;;;;8.85;3.30;;;17.10;99.90;;;;;;5020908;28;20227;-64
2023/05/28 09:43:45;;;;;;;11.02;4.03;;;17.10;99.90;;;;;;5003660;28;20194;-64
2023/05/28 09:46:12;;;;;;;12.77;3.70;;;17.10;99.90;;;;;;4986611;28;20233;-64
2023/05/28 09:48:39;;;;;;;6.75;3.22;;;17.00;99.90;;;;;;4963420;28;20860;-64
2023/05/28 09:51:08;;;;;;;9.23;4.15;;;17.20;99.90;;;;;;4972999;28;20360;-64
2023/05/28 09:53:39;;;;;;;10.10;3.90;;;17.20;99.90;;;;;;4970819;28;20554;-64
2023/05/28 09:56:09;;;;;;;10.15;4.18;;;17.30;99.90;;;;;;4987903;28;20211;-64
2023/05/28 09:58:37;;;;;;;7.60;3.38;;;17.40;99.90;;;;;;4970488;28;20253;-64
2023/05/28 10:01:10;;;;;;;10.45;3.97;;;17.40;99.90;;;;;;4979726;28;20450;-64
2023/05/28 10:03:42;;;;;;;7.22;3.95;;;17.50;99.90;;;;;;4944189;28;20340;-64
2023/05/28 10:06:12;;;;;;;8.73;3.50;;;17.60;99.90;;;;;;4997361;28;20315;-64
2023/05/28 10:08:40;;;;;;;9.15;3.55;;;17.70;99.90;;;;;;4944866;28;20726;-64
2023/05/28 10:11:12;;;;;;;5.55;3.50;;;17.80;99.90;;;;;;4985059;28;20293;-64
2023/05/28 10:13:41;;;;;;;6.45;3.15;;;17.90;99.90;;;;;;4978380;28;20784;-64
2023/05/28 10:16:08;;;;;;;8.80;3.30;;;18.00;99.90;;;;;;4985137;28;20344;-65
2023/05/28 10:18:36;;;;;;;9.98;3.47;;;18.20;99.90;;;;;;4966204;28;20271;-64
2023/05/28 10:21:04;;;;;;;7.88;3.58;;;18.20;99.90;;;;;;5003588;28;20194;-64
2023/05/28 10:23:32;;;;;;;10.57;3.35;;;18.30;99.90;;;;;;5000974;28;20230;-64
2023/05/28 10:25:59;;;;;;;14.18;4.25;;;18.30;99.90;;;;;;4991054;28;20217;-64
2023/05/28 10:28:30;;;;;;;9.65;3.15;;;18.20;99.90;;;;;;4988659;28;20742;-64
2023/05/28 10:31:03;;;;;;;5.70;3.28;;;18.40;99.90;;;;;;4999052;28;20240;-64
2023/05/28 10:33:30;;;;;;;8.88;3.90;;;18.40;99.90;;;;;;4949887;28;20214;-64
2023/05/28 10:36:00;;;;;;;7.78;3.50;;;18.30;99.90;;;;;;5003555;28;20203;-64
2023/05/28 10:38:28;;;;;;;10.10;3.50;;;18.30;99.90;;;;;;5002197;28;20214;-64
2023/05/28 10:41:00;;;;;;;7.70;3.35;;;18.30;99.90;;;;;;4985900;28;20427;-64
2023/05/28 10:43:45;;;;;;;7.75;3.92;;;18.20;99.90;;;;;;5026073;28;20228;-64
2023/05/28 10:46:13;;;;;;;6.78;3.38;;;18.30;99.90;;;;;;5024635;28;20201;-64
2023/05/28 10:48:41;;;;;;;5.05;3.15;;;18.40;99.90;;;;;;4986389;28;21658;-64
2023/05/28 10:51:07;;;;;;;5.93;3.15;;;18.50;99.90;;;;;;5038680;28;20193;-64
2023/05/28 10:53:34;;;;;;;8.93;3.78;;;18.40;99.90;;;;;;5041561;28;20212;-64
2023/05/28 10:56:03;;;;;;;4.78;3.38;;;18.60;99.90;;;;;;5030663;28;20239;-64
2023/05/28 10:58:34;;;;;;;6.82;2.97;;;18.50;99.90;;;;;;5033248;28;20302;-64
2023/05/28 11:01:05;;;;;;;7.95;3.90;;;18.60;99.90;;;;;;5026282;28;20204;-64
2023/05/28 11:03:40;;;;;;;7.15;3.28;;;18.70;99.90;;;;;;4992266;28;20307;-64
2023/05/28 11:06:08;;;;;;;7.70;3.72;;;18.70;99.90;;;;;;5017969;28;20201;-64
2023/05/28 11:08:41;;;;;;;5.10;3.50;;;18.60;99.90;;;;;;5041403;28;20313;-64
2023/05/28 11:11:08;;;;;;;8.02;3.60;;;18.70;99.90;;;;;;5025120;28;20215;-64
2023/05/28 11:13:35;;;;;;;11.52;3.90;;;18.70;99.90;;;;;;5041571;28;20213;-64
2023/05/28 11:16:10;;;;;;;7.60;3.55;;;18.70;99.90;;;;;;5027471;28;20228;-64
2023/05/28 11:18:38;;;;;;;5.45;3.45;;;18.70;99.90;;;;;;5027389;28;20345;-64
2023/05/28 11:21:07;;;;;;;7.15;3.70;;;18.60;99.90;;;;;;5011614;28;20321;-64
2023/05/28 11:23:36;;;;;;;6.10;3.40;;;18.70;99.90;;;;;;5040430;28;20369;-64
2023/05/28 11:26:03;;;;;;;4.60;3.25;;;18.80;99.90;;;;;;5032352;28;20228;-64
2023/05/28 11:28:30;;;;;;;5.78;3.75;;;18.70;99.90;;;;;;5043713;28;20723;-64
2023/05/28 11:30:58;;;;;;;5.22;3.10;;;18.70;99.90;;;;;;5039689;28;20921;-64
2023/05/28 11:33:29;;;;;;;3.75;2.70;;;18.80;99.90;;;;;;5020751;28;20672;-64
2023/05/28 11:36:02;;;;;;;3.92;2.55;;;18.80;99.90;;;;;;5009364;28;20308;-63
2023/05/28 11:38:29;;;;;;;5.18;3.03;;;18.80;99.90;;;;;;5044622;28;20255;-64
2023/05/28 11:41:00;;;;;;;3.95;2.70;;;18.70;99.90;;;;;;5044678;28;20216;-63
2023/05/28 11:43:27;;;;;;;6.72;2.88;;;18.90;99.90;;;;;;5029388;28;20236;-64
2023/05/28 11:45:58;;;;;;;5.13;2.72;;;18.90;99.90;;;;;;5042767;28;20281;-63
2023/05/28 11:48:26;;;;;;;4.32;2.70;;;18.90;99.90;;;;;;5031243;28;20236;-64
2023/05/28 11:50:59;;;;;;;3.30;2.60;;;18.90;99.90;;;;;;5012393;28;20875;-63
2023/05/28 11:53:39;;;;;;;4.43;2.53;;;19.00;99.90;;;;;;5047309;28;20227;-64
2023/05/28 11:56:07;;;;;;;6.28;3.65;;;19.10;99.90;;;;;;5042475;28;20900;-63
2023/05/28 11:58:34;;;;;;;7.80;3.28;;;19.00;99.90;;;;;;5033723;28;20262;-63
2023/05/28 12:01:01;;;;;;;7.38;3.03;;;19.10;99.90;;;;;;5044260;28;20204;-63
2023/05/28 12:03:28;;;;;;;4.80;2.53;;;19.10;99.90;;;;;;5016719;28;20236;-63
2023/05/28 12:05:55;;;;;;;4.38;2.90;;;19.20;99.90;;;;;;5008210;28;20222;-64
2023/05/28 12:08:23;;;;;;;4.05;2.40;;;19.10;99.90;;;;;;5043191;28;20559;-63
2023/05/28 12:10:50;;;;;;;3.70;2.47;;;19.20;99.90;;;;;;5043652;28;20677;-63
2023/05/28 12:13:17;;;;;;;3.67;2.30;;;19.10;99.90;;;;;;5026781;28;20611;-64
2023/05/28 12:15:44;;;;;;;5.32;2.58;;;19.10;99.90;;;;;;5048792;28;20240;-63
2023/05/28 12:18:11;;;;;;;7.05;2.35;;;19.10;99.90;;;;;;5026107;28;20960;-63
2023/05/28 12:20:41;;;;;;;6.10;2.88;;;19.10;99.90;;;;;;5009070;28;20341;-63
2023/05/28 12:23:10;;;;;;;5.13;2.40;;;19.10;99.90;;;;;;5040859;28;21249;-63
2023/05/28 12:25:49;;;;;;;8.90;2.90;;;19.10;99.90;;;;;;5020588;28;20680;-63
2023/05/28 12:28:18;;;;;;;5.28;2.97;;;19.20;99.90;;;;;;5000180;28;20723;-64
2023/05/28 12:30:47;;;;;;;4.80;2.70;;;19.20;99.90;;;;;;5026123;28;20292;-64
2023/05/28 12:33:14;;;;;;;8.45;2.80;;;19.10;99.90;;;;;;5010941;28;20710;-64
2023/05/28 12:35:41;;;;;;;10.65;2.95;;;19.10;99.90;;;;;;5043251;28;20244;-64
2023/05/28 12:38:09;;;;;;;7.97;2.63;;;18.90;99.90;;;;;;5010323;28;20901;-63
2023/05/28 12:40:36;;;;;;;5.15;2.85;;;18.80;99.90;;;;;;5030918;28;20329;-63
2023/05/28 12:43:04;;;;;;;5.78;2.70;;;18.80;99.90;;;;;;5039079;28;20820;-63
2023/05/28 12:45:31;;;;;;;8.65;2.75;;;18.90;99.90;;;;;;5030747;28;20285;-64